createdAt,value
2023-02-02T00:15:53.559Z,98787.09
2023-02-02T00:18:26.360Z,98783.73
2023-02-02T00:21:02.458Z,98779.92
2023-02-02T00:23:34.935Z,98782.13
2023-02-02T00:26:06.783Z,98788.90
2023-02-02T00:28:35.801Z,98793.96
2023-02-02T00:31:07.110Z,98799.05
2023-02-02T00:33:35.527Z,98803.95
2023-02-02T00:36:05.146Z,98799.79
2023-02-02T00:38:34.947Z,98797.55
2023-02-02T00:41:03.321Z,98796.71
2023-02-02T00:43:32.277Z,98792.17
2023-02-02T00:46:01.201Z,98792.23
2023-02-02T00:48:29.398Z,98786.36
2023-02-02T00:50:58.431Z,98782.99
2023-02-02T00:53:26.934Z,98784.59
2023-02-02T00:55:58.911Z,98785.40
2023-02-02T00:58:27.703Z,98786.67
2023-02-02T04:02:45.610Z,98768.86
2023-02-02T04:05:15.869Z,98766.42
2023-02-02T04:07:54.882Z,98764.21
2023-02-02T04:10:26.787Z,98761.88
2023-02-02T04:15:57.736Z,98759.90
2023-02-02T04:18:28.057Z,98759.82
2023-02-02T04:21:01.734Z,98757.40
2023-02-02T04:23:31.464Z,98758.25
2023-02-02T04:26:01.929Z,98755.55
2023-02-02T04:28:31.149Z,98750.79
2023-02-02T04:30:59.969Z,98747.33
2023-02-02T04:33:32.732Z,98748.80
2023-02-02T04:36:24.049Z,98750.34
2023-02-02T05:15:57.923Z,98741.24
2023-02-02T05:18:26.851Z,98740.98
2023-02-02T05:20:57.979Z,98744.23
2023-02-02T05:23:27.295Z,98741.71
2023-02-02T05:25:56.844Z,98739.40
2023-02-02T05:28:26.503Z,98747.14
2023-02-02T05:30:55.467Z,98750.23
2023-02-02T05:33:25.092Z,98751.84
2023-02-02T05:35:54.340Z,98752.65
2023-02-02T05:38:23.770Z,98752.64
2023-02-02T05:40:53.098Z,98754.17
2023-02-02T05:43:25.151Z,98759.61
2023-02-02T05:45:54.207Z,98757.45
2023-02-02T05:48:22.321Z,98759.42
2023-02-02T05:50:58.240Z,98763.06
2023-02-02T05:53:28.199Z,98764.29
2023-02-02T05:55:57.111Z,98761.34
2023-02-02T05:58:26.575Z,98761.87
2023-02-02T06:00:56.867Z,98763.39
2023-02-02T06:03:26.252Z,98766.52
2023-02-02T06:05:55.130Z,98767.46
2023-02-02T06:08:24.146Z,98764.67
2023-02-02T06:10:52.959Z,98762.96
2023-02-02T06:13:22.324Z,98766.20
2023-02-02T06:15:51.529Z,98766.98
2023-02-02T06:18:21.567Z,98767.90
2023-02-02T06:20:56.340Z,98770.77
2023-02-02T06:23:25.408Z,98771.62
2023-02-02T06:25:54.077Z,98774.86
2023-02-02T06:28:24.265Z,98773.27
2023-02-02T06:30:53.860Z,98777.76
2023-02-02T06:33:22.925Z,98778.46
2023-02-02T06:35:53.719Z,98782.98
2023-02-02T06:38:21.810Z,98790.18
2023-02-02T06:40:50.315Z,98792.48
2023-02-02T06:43:19.829Z,98790.05
2023-02-02T06:45:48.579Z,98793.70
2023-02-02T06:48:19.932Z,98796.40
2023-02-02T06:50:50.019Z,98798.52
2023-02-02T06:53:23.848Z,98802.58
2023-02-02T06:55:59.464Z,98806.55
2023-02-02T06:58:28.728Z,98807.30
2023-02-02T07:01:04.773Z,98811.05
2023-02-02T07:03:34.049Z,98817.48
2023-02-02T07:06:19.254Z,98824.42
2023-02-02T07:09:01.958Z,98826.89
2023-02-02T07:11:35.306Z,98835.95
2023-02-02T07:14:07.593Z,98836.73
2023-02-02T07:16:36.264Z,98844.17
2023-02-02T07:19:04.980Z,98845.85
2023-02-02T07:21:37.911Z,98852.66
2023-02-02T07:24:07.621Z,98859.89
2023-02-02T07:26:37.389Z,98860.75
2023-02-02T07:29:06.288Z,98860.48
2023-02-02T07:31:36.486Z,98861.54
2023-02-02T07:34:06.177Z,98865.29
2023-02-02T07:36:34.816Z,98873.12
2023-02-02T07:39:05.438Z,98876.26
2023-02-02T07:41:35.542Z,98879.30
2023-02-02T07:44:06.169Z,98887.41
2023-02-02T07:46:35.140Z,98889.26
2023-02-02T07:49:04.949Z,98891.39
2023-02-02T07:51:33.872Z,98895.71
2023-02-02T07:54:02.027Z,98900.08
2023-02-02T07:56:30.986Z,98901.34
2023-02-02T07:59:01.501Z,98907.05
2023-02-02T08:01:30.967Z,98910.85
2023-02-02T08:04:04.409Z,98918.35
2023-02-02T08:06:35.124Z,98920.95
2023-02-02T08:09:05.770Z,98925.98
2023-02-02T08:11:34.981Z,98929.76
2023-02-02T08:14:04.673Z,98931.49
2023-02-02T08:16:34.281Z,98934.27
2023-02-02T08:19:03.339Z,98938.08
2023-02-02T08:21:35.160Z,98939.00
2023-02-02T08:24:05.097Z,98942.11
2023-02-02T08:26:33.800Z,98944.45
2023-02-02T08:29:04.666Z,98954.12
2023-02-02T08:31:35.499Z,98958.49
2023-02-02T08:34:04.763Z,98955.77
2023-02-02T08:36:36.137Z,98959.50
2023-02-02T08:39:07.823Z,98966.61
2023-02-02T08:41:37.162Z,98966.69
2023-02-02T08:44:06.389Z,98974.13
2023-02-02T08:46:34.981Z,98980.73
2023-02-02T08:49:03.978Z,98982.87
2023-02-02T08:51:33.146Z,98987.05
2023-02-02T08:54:01.176Z,98988.60
2023-02-02T08:56:29.618Z,98992.27
2023-02-02T08:58:58.969Z,99001.30
2023-02-02T09:01:29.463Z,99007.23
2023-02-02T09:03:59.863Z,99010.80
2023-02-02T09:06:31.569Z,99012.86
2023-02-02T09:09:01.019Z,99017.38
2023-02-02T09:11:29.239Z,99019.27
2023-02-02T09:16:01.328Z,99026.63
2023-02-02T09:18:33.388Z,99028.66
2023-02-02T09:21:04.374Z,99032.43
2023-02-02T09:23:34.148Z,99039.98
2023-02-02T09:26:12.242Z,99042.66
2023-02-02T09:28:42.504Z,99048.96
2023-02-02T09:31:11.210Z,99055.30
2023-02-02T09:33:40.103Z,99059.76
2023-02-02T09:36:16.207Z,99063.34
2023-02-02T09:38:45.345Z,99065.02
2023-02-02T09:41:32.683Z,99072.41
2023-02-02T09:44:20.687Z,99078.44
2023-02-02T09:47:07.325Z,99082.64
2023-02-02T09:49:43.374Z,99088.50
2023-02-02T09:52:19.502Z,99096.39
2023-02-02T09:54:51.145Z,99099.48
2023-02-02T09:57:23.264Z,99108.33
2023-02-02T09:59:54.654Z,99111.71
2023-02-02T10:02:39.490Z,99118.09
2023-02-02T10:05:18.873Z,99129.55
2023-02-02T10:07:51.853Z,99140.40
2023-02-02T10:10:23.724Z,99155.83
2023-02-02T10:12:52.699Z,99164.75
2023-02-02T10:15:23.617Z,99170.05
2023-02-02T10:17:59.383Z,99171.65
2023-02-02T10:20:45.679Z,99178.34
2023-02-02T10:23:33.446Z,99181.05
2023-02-02T10:26:09.778Z,99190.13
2023-02-02T10:28:57.445Z,99192.23
2023-02-02T10:31:46.648Z,99200.83
2023-02-02T10:34:38.677Z,99206.59
2023-02-02T10:37:28.660Z,99218.96
2023-02-02T10:40:16.375Z,99220.94
2023-02-02T10:43:16.441Z,99225.11
2023-02-02T10:45:48.672Z,99234.30
2023-02-02T10:48:18.603Z,99241.98
2023-02-02T10:50:55.345Z,99248.10
2023-02-02T10:53:27.191Z,99253.67
2023-02-02T10:56:00.063Z,99255.30
2023-02-02T10:58:55.185Z,99271.30
2023-02-02T11:01:24.201Z,99283.35
2023-02-02T11:04:13.143Z,99290.89
2023-02-02T11:06:51.797Z,99293.80
2023-02-02T11:09:22.272Z,99294.86
2023-02-02T11:11:53.372Z,99299.20
2023-02-02T11:14:45.473Z,99307.00
2023-02-02T11:17:22.722Z,99306.66
2023-02-02T11:19:52.521Z,99306.49
2023-02-02T11:22:54.751Z,99306.91
2023-02-02T11:25:27.705Z,99307.58
2023-02-02T11:27:56.653Z,99311.63
2023-02-02T11:30:31.084Z,99317.17
2023-02-02T11:33:00.020Z,99323.08
2023-02-02T11:35:32.291Z,99325.33
2023-02-02T11:38:09.796Z,99327.80
2023-02-02T11:40:41.631Z,99332.45
2023-02-02T11:43:21.512Z,99341.95
2023-02-02T11:45:55.394Z,99348.34
2023-02-02T11:48:27.969Z,99350.91
2023-02-02T11:50:58.319Z,99348.84
2023-02-02T11:53:29.696Z,99357.40
2023-02-02T11:56:01.429Z,99360.58
2023-02-02T11:58:43.541Z,99361.36
2023-02-02T12:01:34.522Z,99363.55
2023-02-02T12:04:05.168Z,99373.35
2023-02-02T12:06:34.043Z,99373.73
2023-02-02T12:09:06.417Z,99385.16
2023-02-02T12:11:35.625Z,99386.23
2023-02-02T12:14:16.974Z,99393.59
2023-02-02T12:16:55.606Z,99401.29
2023-02-02T12:19:27.401Z,99396.59
2023-02-02T12:22:05.582Z,99397.95
2023-02-02T12:24:53.436Z,99410.27
2023-02-02T12:27:22.383Z,99411.11
2023-02-02T12:30:10.397Z,99421.23
2023-02-02T12:32:57.805Z,99432.90
2023-02-02T12:35:27.232Z,99444.64
2023-02-02T12:38:08.619Z,99452.38
2023-02-02T12:40:56.468Z,99454.06
2023-02-02T12:43:25.362Z,99457.04
2023-02-02T12:46:13.679Z,99465.83
2023-02-02T12:48:45.881Z,99460.90
2023-02-02T12:51:35.500Z,99457.89
2023-02-02T12:54:32.601Z,99465.48
2023-02-02T12:57:07.941Z,99472.96
2023-02-02T12:59:48.866Z,99484.23
2023-02-02T13:02:20.897Z,99484.80
2023-02-02T13:07:48.444Z,99497.73
2023-02-02T13:10:18.139Z,99501.54
2023-02-02T13:12:54.088Z,99506.99
2023-02-02T13:15:24.364Z,99508.52
2023-02-02T13:17:55.362Z,99512.15
2023-02-02T13:20:46.909Z,99513.71
2023-02-02T13:23:28.022Z,99516.50
2023-02-02T13:25:59.811Z,99517.63
2023-02-02T13:28:31.821Z,99522.50
2023-02-02T13:31:06.363Z,99527.92
2023-02-02T13:33:37.906Z,99534.90
2023-02-02T13:36:13.235Z,99539.88
2023-02-02T13:38:43.177Z,99541.92
2023-02-02T13:41:14.112Z,99547.17
2023-02-02T13:44:04.488Z,99548.20
2023-02-02T13:46:53.139Z,99558.10
2023-02-02T13:49:55.380Z,99564.34
2023-02-02T13:52:28.147Z,99570.31
2023-02-02T13:55:03.528Z,99573.33
2023-02-02T13:57:42.822Z,99579.75
2023-02-02T14:00:34.850Z,99582.09
2023-02-02T14:03:11.089Z,99587.31
2023-02-02T14:05:42.011Z,99589.66
2023-02-02T14:08:23.130Z,99597.94
2023-02-02T14:10:55.035Z,99602.30
2023-02-02T14:13:45.422Z,99604.60
2023-02-02T14:16:22.794Z,99607.17
2023-02-02T14:18:51.709Z,99614.35
2023-02-02T14:21:43.174Z,99614.91
2023-02-02T14:24:15.230Z,99621.25
2023-02-02T14:26:48.915Z,99627.56
2023-02-02T14:29:46.726Z,99640.34
2023-02-02T14:32:31.133Z,99645.92
2023-02-02T14:35:09.973Z,99655.95
2023-02-02T14:37:38.885Z,99661.81
2023-02-02T14:40:07.168Z,99669.15
2023-02-02T14:42:54.891Z,99680.27
2023-02-02T14:45:28.222Z,99688.54
2023-02-02T14:48:00.638Z,99702.19
2023-02-02T14:50:49.841Z,99708.56
2023-02-02T14:53:32.047Z,99712.88
2023-02-02T14:56:09.594Z,99721.31
2023-02-02T14:59:05.229Z,99731.73
2023-02-02T15:01:35.667Z,99746.80
2023-02-02T15:04:26.284Z,99751.27
2023-02-02T15:10:54.128Z,99775.92
2023-02-02T15:13:25.104Z,99786.38
2023-02-02T15:16:01.985Z,99801.23
2023-02-02T15:18:34.382Z,99801.90
2023-02-02T15:21:06.334Z,99804.75
2023-02-02T15:23:46.020Z,99808.60
2023-02-02T15:26:21.143Z,99816.89
2023-02-02T15:28:50.848Z,99828.55
2023-02-02T15:31:46.684Z,99837.31
2023-02-02T15:34:16.309Z,99839.70
2023-02-02T15:36:47.605Z,99846.08
2023-02-02T15:39:16.068Z,99856.40
2023-02-02T15:41:46.631Z,99866.63
2023-02-02T15:44:23.309Z,99872.95
2023-02-02T15:46:54.098Z,99886.81
2023-02-02T15:49:35.224Z,99893.25
2023-02-02T15:52:12.360Z,99895.50
2023-02-02T15:54:50.445Z,99904.09
2023-02-02T15:57:33.107Z,99908.94
2023-02-02T16:00:22.088Z,99911.30
2023-02-02T16:03:12.634Z,99918.95
2023-02-02T16:05:49.337Z,99921.37
2023-02-02T16:08:24.375Z,99927.27
2023-02-02T16:11:01.827Z,99933.78
2023-02-02T16:13:32.308Z,99935.50
2023-02-02T16:16:07.300Z,99944.46
2023-02-02T16:18:36.912Z,99950.38
2023-02-02T16:21:10.407Z,99960.81
2023-02-02T16:23:40.117Z,99965.02
2023-02-02T16:26:08.910Z,99973.62
2023-02-02T16:28:38.828Z,99976.94
2023-02-02T16:31:07.905Z,99983.44
2023-02-02T16:33:42.484Z,99993.31
2023-02-02T16:36:30.456Z,100001.88
2023-02-02T16:39:04.364Z,100009.09
2023-02-02T16:41:39.417Z,100020.77
2023-02-02T16:44:27.139Z,100028.29
2023-02-02T16:46:56.804Z,100031.89
2023-02-02T16:49:27.089Z,100036.61
2023-02-02T16:52:14.691Z,100039.88
2023-02-02T16:54:50.624Z,100043.15
2023-02-02T16:57:21.799Z,100051.31
2023-02-02T16:59:52.549Z,100055.66
2023-02-02T17:02:24.785Z,100066.33
2023-02-02T17:05:00.721Z,100069.05
2023-02-02T17:07:30.455Z,100072.16
2023-02-02T17:10:21.690Z,100077.98
2023-02-02T17:12:51.040Z,100091.08
2023-02-02T17:15:19.058Z,100097.20
2023-02-02T17:17:48.743Z,100111.10
2023-02-02T17:20:18.361Z,100113.10
2023-02-02T17:22:51.737Z,100123.27
2023-02-02T17:25:25.475Z,100128.65
2023-02-02T17:27:55.769Z,100144.52
2023-02-02T17:30:24.843Z,100147.27
2023-02-02T17:32:53.727Z,100157.20
2023-02-02T17:35:27.695Z,100162.30
2023-02-02T17:37:57.981Z,100169.72
2023-02-02T17:40:26.839Z,100173.77
2023-02-02T17:42:55.292Z,100173.50
2023-02-02T17:45:24.925Z,100180.34
2023-02-02T17:47:53.221Z,100188.10
2023-02-02T17:50:21.948Z,100189.92
2023-02-02T17:52:50.338Z,100199.71
2023-02-02T17:55:20.470Z,100198.70
2023-02-02T17:57:49.047Z,100203.61
2023-02-02T18:00:18.092Z,100207.52
2023-02-02T18:02:47.743Z,100211.34
2023-02-02T18:05:16.838Z,100216.67
2023-02-02T18:07:44.973Z,100224.56
2023-02-02T18:10:14.366Z,100227.73
2023-02-02T18:12:42.688Z,100236.00
2023-02-02T18:15:15.043Z,100243.59
2023-02-02T18:17:43.067Z,100245.26
2023-02-02T18:20:14.074Z,100249.70
2023-02-02T18:22:49.031Z,100254.97
2023-02-02T18:25:17.532Z,100258.16
2023-02-02T18:27:46.392Z,100260.02
2023-02-02T18:30:15.094Z,100259.56
2023-02-02T18:32:43.817Z,100266.79
2023-02-02T18:35:12.598Z,100271.49
2023-02-02T18:37:41.028Z,100271.19
2023-02-02T18:40:10.266Z,100275.08
2023-02-02T18:42:38.449Z,100280.10
2023-02-02T18:45:07.118Z,100280.45
2023-02-02T18:47:35.632Z,100288.43
2023-02-02T18:50:04.445Z,100292.80
2023-02-02T18:52:33.321Z,100301.57
2023-02-02T18:55:01.655Z,100308.07
2023-02-02T18:57:30.787Z,100317.17
2023-02-02T18:59:59.558Z,100321.86
2023-02-02T19:02:27.812Z,100328.27
2023-02-02T19:05:16.191Z,100327.20
2023-02-02T19:07:56.645Z,100339.89
2023-02-02T19:10:26.424Z,100345.70
2023-02-02T19:12:57.449Z,100348.24
2023-02-02T19:15:27.154Z,100352.73
2023-02-02T19:17:55.596Z,100356.70
2023-02-02T19:20:23.779Z,100354.59
2023-02-02T19:22:55.435Z,100358.05
2023-02-02T19:25:25.002Z,100362.02
2023-02-02T19:27:53.586Z,100368.53
2023-02-02T19:30:22.828Z,100369.47
2023-02-02T19:32:51.313Z,100368.98
2023-02-02T19:35:24.662Z,100374.30
2023-02-02T19:37:57.687Z,100383.96
2023-02-02T19:40:26.054Z,100385.23
2023-02-02T19:43:12.729Z,100385.30
2023-02-02T19:45:41.374Z,100388.11
2023-02-02T19:48:17.790Z,100391.86
2023-02-02T19:50:48.515Z,100396.11
2023-02-02T19:53:20.079Z,100397.14
2023-02-02T19:55:48.278Z,100395.10
2023-02-02T19:58:19.640Z,100404.39
2023-02-02T20:00:49.837Z,100402.10
2023-02-02T20:03:19.553Z,100403.45
2023-02-02T20:05:48.751Z,100405.86
2023-02-02T20:08:16.829Z,100404.44
2023-02-02T20:10:46.449Z,100405.48
2023-02-02T20:13:20.694Z,100406.81
2023-02-02T20:15:50.245Z,100408.55
2023-02-02T20:18:23.298Z,100412.08
2023-02-02T20:20:55.368Z,100410.86
2023-02-02T20:23:43.981Z,100417.27
2023-02-02T20:26:21.663Z,100425.26
2023-02-02T20:28:50.342Z,100428.04
2023-02-02T20:31:20.404Z,100433.17
2023-02-02T20:33:50.859Z,100437.48
2023-02-02T20:36:28.925Z,100442.98
2023-02-02T20:38:59.995Z,100450.91
2023-02-02T20:41:29.124Z,100455.30
2023-02-02T20:43:57.187Z,100457.77
2023-02-02T20:46:25.851Z,100460.35
2023-02-02T20:48:56.323Z,100465.30
2023-02-02T20:51:25.634Z,100467.58
2023-02-02T20:53:55.737Z,100473.92
2023-02-02T20:56:24.781Z,100477.52
2023-02-02T20:58:52.841Z,100481.09
2023-02-02T21:01:23.637Z,100485.92
2023-02-02T21:03:52.320Z,100492.86
2023-02-02T21:06:21.430Z,100497.77
2023-02-02T21:08:52.808Z,100497.92
2023-02-02T21:11:22.252Z,100509.50
2023-02-02T21:13:51.748Z,100514.23
2023-02-02T21:16:20.470Z,100517.77
2023-02-02T21:18:49.240Z,100518.20
2023-02-02T21:21:19.461Z,100518.11
2023-02-02T21:23:47.598Z,100518.27
2023-02-02T21:26:20.233Z,100521.29
2023-02-02T21:28:49.766Z,100522.75
2023-02-02T21:31:18.696Z,100520.78
2023-02-02T21:33:47.727Z,100520.03
2023-02-02T21:36:19.839Z,100522.09
2023-02-02T21:38:48.475Z,100516.71
2023-02-02T21:41:16.352Z,100524.89
2023-02-02T21:43:45.615Z,100536.12
2023-02-02T21:46:19.320Z,100540.10
2023-02-02T21:48:48.123Z,100549.98
2023-02-02T21:51:23.565Z,100554.81
2023-02-02T21:53:52.577Z,100559.13
2023-02-02T21:56:28.880Z,100568.27
2023-02-02T21:58:59.088Z,100574.52
2023-02-02T22:01:36.387Z,100572.47
2023-02-02T22:04:12.203Z,100566.73
2023-02-02T22:06:44.132Z,100565.70
2023-02-02T22:09:12.818Z,100569.41
2023-02-02T22:11:46.081Z,100578.03
2023-02-02T22:14:19.899Z,100581.02
2023-02-02T22:16:50.482Z,100589.54
2023-02-02T22:19:32.789Z,100590.45
2023-02-02T22:22:07.407Z,100597.31
2023-02-02T22:24:36.442Z,100604.25
2023-02-02T22:27:10.718Z,100603.71
2023-02-02T22:29:38.760Z,100610.44
2023-02-02T22:32:07.445Z,100617.30
2023-02-02T22:34:36.067Z,100617.60
2023-02-02T22:37:04.272Z,100618.65
2023-02-02T22:39:32.979Z,100618.00
2023-02-02T22:42:01.831Z,100614.14
2023-02-02T22:44:30.613Z,100613.19
2023-02-02T22:46:58.893Z,100608.45
2023-02-02T22:49:27.610Z,100608.48
2023-02-02T22:51:56.372Z,100608.10
2023-02-02T22:54:25.431Z,100607.73
2023-02-02T22:56:53.985Z,100607.71
2023-02-02T22:59:22.500Z,100606.46
2023-02-02T23:01:51.242Z,100600.59
2023-02-02T23:04:20.047Z,100608.30
2023-02-02T23:06:48.910Z,100612.34
2023-02-02T23:09:17.216Z,100615.50
2023-02-02T23:11:49.405Z,100621.98
2023-02-02T23:14:18.110Z,100624.77
2023-02-02T23:16:46.353Z,100625.42
2023-02-02T23:19:14.689Z,100624.89
2023-02-02T23:21:43.041Z,100631.36
2023-02-02T23:24:11.431Z,100630.48
2023-02-02T23:26:40.116Z,100630.73
2023-02-02T23:29:08.789Z,100627.45
2023-02-02T23:31:37.553Z,100632.73
2023-02-02T23:34:05.826Z,100637.74
2023-02-02T23:36:34.296Z,100641.11
2023-02-02T23:39:02.525Z,100644.98
2023-02-02T23:41:30.576Z,100643.67
2023-02-02T23:43:59.008Z,100642.98
2023-02-02T23:46:27.672Z,100647.80
2023-02-02T23:48:55.852Z,100648.67
2023-02-02T23:51:24.528Z,100654.13
2023-02-02T23:53:53.291Z,100655.22
2023-02-02T23:56:21.872Z,100660.83
2023-02-02T23:58:50.186Z,100662.18
